createdAt,value
2022-12-13T00:03:50.173Z,21.20
2022-12-13T00:08:55.574Z,24.77
2022-12-13T00:14:03.439Z,23.27
2022-12-13T00:19:10.975Z,20.73
2022-12-13T00:24:16.450Z,26.97
2022-12-13T00:29:23.994Z,19.30
2022-12-13T00:34:29.455Z,19.70
2022-12-13T00:39:34.397Z,19.50
2022-12-13T00:44:42.149Z,18.97
2022-12-13T00:49:47.856Z,16.80
2022-12-13T00:54:52.709Z,20.47
2022-12-13T01:00:00.435Z,19.50
2022-12-13T01:05:05.367Z,18.03
2022-12-13T01:10:11.715Z,19.57
2022-12-13T01:15:19.415Z,18.30
2022-12-13T01:20:24.310Z,17.73
2022-12-13T01:25:29.218Z,15.43
2022-12-13T01:30:36.792Z,17.87
2022-12-13T01:35:41.750Z,17.50
2022-12-13T01:40:48.463Z,16.37
2022-12-13T01:45:55.987Z,14.87
2022-12-13T01:51:05.676Z,16.23
2022-12-13T01:56:14.599Z,16.03
2022-12-13T02:01:24.495Z,16.87
2022-12-13T02:06:35.639Z,16.00
2022-12-13T02:11:46.493Z,18.90
2022-12-13T02:17:04.282Z,14.07
2022-12-13T02:22:23.609Z,25.67
2022-12-13T02:27:52.272Z,39.37
2022-12-13T02:33:26.943Z,49.13
2022-12-13T02:38:39.587Z,27.63
2022-12-13T02:43:50.752Z,25.07
2022-12-13T02:49:00.045Z,27.40
2022-12-13T02:54:05.092Z,35.63
2022-12-13T02:59:15.819Z,32.37
2022-12-13T03:04:39.987Z,33.37
2022-12-13T03:09:58.471Z,47.00
2022-12-13T03:15:10.231Z,30.23
2022-12-13T03:20:22.756Z,44.37
2022-12-13T03:25:33.515Z,31.30
2022-12-13T03:30:38.456Z,36.77
2022-12-13T03:35:48.559Z,27.60
2022-12-13T03:40:56.511Z,32.07
2022-12-13T03:46:01.621Z,29.23
2022-12-13T03:51:09.310Z,34.70
2022-12-13T03:56:14.407Z,25.20
2022-12-13T04:01:20.561Z,36.73
2022-12-13T04:06:32.793Z,31.20
2022-12-13T04:11:53.152Z,29.73
2022-12-13T04:16:59.517Z,25.93
2022-12-13T04:22:07.069Z,38.90
2022-12-13T04:27:12.107Z,32.77
2022-12-13T04:32:26.441Z,35.67
2022-12-13T04:37:35.497Z,20.60
2022-12-13T04:42:40.627Z,26.90
2022-12-13T04:47:45.793Z,42.60
2022-12-13T04:52:53.459Z,38.27
2022-12-13T04:58:00.834Z,27.53
2022-12-13T05:03:05.696Z,35.57
2022-12-13T05:08:13.500Z,28.57
2022-12-13T05:13:18.507Z,29.10
2022-12-13T05:18:23.682Z,28.83
2022-12-13T05:23:31.311Z,32.20
2022-12-13T05:28:36.545Z,35.17
2022-12-13T05:33:41.585Z,50.43
2022-12-13T05:38:49.049Z,46.27
2022-12-13T05:43:54.291Z,38.93
2022-12-13T05:48:59.298Z,38.63
2022-12-13T05:54:07.978Z,19.53
2022-12-13T05:59:12.885Z,21.97
2022-12-13T06:04:22.573Z,30.90
2022-12-13T06:09:30.863Z,24.13
2022-12-13T06:15:03.161Z,16.57
2022-12-13T06:20:31.403Z,22.93
2022-12-13T06:25:47.428Z,42.13
2022-12-13T06:30:55.317Z,25.83
2022-12-13T06:36:01.329Z,22.47
2022-12-13T06:41:15.454Z,25.47
2022-12-13T06:46:20.538Z,17.20
2022-12-13T06:51:32.512Z,20.63
2022-12-13T06:56:40.986Z,16.40
2022-12-13T07:01:50.740Z,13.47
2022-12-13T07:06:56.047Z,9.77
2022-12-13T07:12:10.283Z,31.87
2022-12-13T07:17:32.582Z,19.37
2022-12-13T07:22:47.238Z,19.93
2022-12-13T07:28:03.203Z,18.43
2022-12-13T07:33:09.352Z,20.47
2022-12-13T07:38:15.201Z,19.23
2022-12-13T07:43:24.189Z,24.47
2022-12-13T07:48:29.613Z,32.60
2022-12-13T07:53:34.765Z,53.90
2022-12-13T07:58:42.480Z,53.97
2022-12-13T08:03:47.550Z,30.87
2022-12-13T08:08:54.091Z,20.50
2022-12-13T08:14:01.705Z,19.47
2022-12-13T08:19:07.463Z,21.97
2022-12-13T08:24:15.810Z,20.00
2022-12-13T08:29:33.175Z,19.67
2022-12-13T08:34:41.391Z,22.73
2022-12-13T08:39:47.001Z,21.57
2022-12-13T08:44:57.070Z,25.27
2022-12-13T08:50:04.439Z,27.10
2022-12-13T08:55:10.361Z,24.07
2022-12-13T09:00:20.116Z,24.27
2022-12-13T09:05:33.920Z,23.37
2022-12-13T09:10:40.251Z,26.57
2022-12-13T09:15:55.064Z,24.90
2022-12-13T09:21:12.171Z,25.37
2022-12-13T09:26:19.033Z,25.87
2022-12-13T09:31:41.252Z,23.77
2022-12-13T09:36:46.638Z,20.67
2022-12-13T09:42:01.258Z,15.53
2022-12-13T09:47:23.169Z,14.30
2022-12-13T09:52:33.479Z,15.77
2022-12-13T09:57:38.808Z,16.43
2022-12-13T10:02:56.166Z,15.30
2022-12-13T10:08:03.639Z,22.93
2022-12-13T10:13:20.511Z,20.23
2022-12-13T10:18:37.355Z,18.33
2022-12-13T10:24:22.773Z,18.03
2022-12-13T10:29:12.716Z,15.80
2022-12-13T10:34:27.484Z,15.97
2022-12-13T10:39:43.756Z,19.07
2022-12-13T10:45:10.926Z,15.13
2022-12-13T10:50:29.967Z,14.73
2022-12-13T10:55:38.605Z,16.93
2022-12-13T11:00:46.528Z,17.93
2022-12-13T11:06:06.238Z,16.30
2022-12-13T11:11:13.164Z,17.07
2022-12-13T11:16:26.574Z,16.00
2022-12-13T11:21:41.360Z,13.90
2022-12-13T11:26:53.967Z,15.73
2022-12-13T11:32:08.438Z,16.13
2022-12-13T11:37:31.636Z,16.00
2022-12-13T11:42:43.975Z,17.00
2022-12-13T11:47:58.822Z,12.57
2022-12-13T11:53:25.306Z,13.17
2022-12-13T11:59:16.243Z,12.73
2022-12-13T12:04:30.957Z,11.50
2022-12-13T12:09:44.668Z,11.87
2022-12-13T12:14:57.730Z,11.30
2022-12-13T12:20:24.252Z,11.87
2022-12-13T12:25:42.359Z,10.50
2022-12-13T12:30:57.716Z,9.87
2022-12-13T12:36:19.183Z,11.67
2022-12-13T12:41:40.604Z,11.67
2022-12-13T12:47:31.628Z,18.27
2022-12-13T12:52:38.572Z,9.50
2022-12-13T12:57:57.880Z,12.33
2022-12-13T13:03:22.643Z,13.83
2022-12-13T13:08:35.281Z,12.90
2022-12-13T13:13:51.953Z,11.00
2022-12-13T13:18:58.623Z,14.27
2022-12-13T13:24:19.250Z,15.83
2022-12-13T13:29:43.371Z,14.67
2022-12-13T13:34:52.123Z,17.27
2022-12-13T13:40:03.786Z,20.57
2022-12-13T13:45:28.735Z,22.43
2022-12-13T13:51:08.716Z,18.80
2022-12-13T13:56:43.665Z,18.23
2022-12-13T14:02:36.583Z,19.60
2022-12-13T14:08:22.143Z,20.23
2022-12-13T14:14:03.470Z,16.90
2022-12-13T14:19:38.185Z,21.83
2022-12-13T14:24:55.409Z,29.63
2022-12-13T14:30:01.901Z,26.67
2022-12-13T14:35:48.348Z,20.40
2022-12-13T14:41:06.647Z,18.70
2022-12-13T14:46:17.144Z,18.87
2022-12-13T14:51:33.961Z,17.90
2022-12-13T14:56:56.999Z,27.20
2022-12-13T15:02:03.613Z,25.37
2022-12-13T15:07:28.344Z,24.07
2022-12-13T15:12:36.646Z,23.47
2022-12-13T15:17:42.939Z,29.90
2022-12-13T15:23:03.254Z,26.07
2022-12-13T15:28:21.588Z,52.60
2022-12-13T15:33:34.469Z,44.83
2022-12-13T15:38:52.332Z,35.87
2022-12-13T15:44:02.729Z,25.73
2022-12-13T15:49:25.741Z,24.50
2022-12-13T15:54:33.461Z,46.13
2022-12-13T15:59:39.523Z,83.57
2022-12-13T16:04:44.673Z,62.70
2022-12-13T16:09:56.465Z,30.10
2022-12-13T16:15:20.395Z,60.60
2022-12-13T16:20:36.286Z,37.47
2022-12-13T16:25:47.132Z,37.13
2022-12-13T16:31:12.520Z,41.00
2022-12-13T16:36:17.902Z,37.90
2022-12-13T16:41:25.583Z,33.73
2022-12-13T16:47:15.220Z,31.67
2022-12-13T16:51:56.299Z,33.80
2022-12-13T16:57:04.043Z,25.60
2022-12-13T17:02:09.078Z,31.83
2022-12-13T17:07:14.023Z,34.77
2022-12-13T17:12:21.529Z,37.00
2022-12-13T17:17:27.734Z,41.90
2022-12-13T17:22:32.721Z,54.80
2022-12-13T17:27:40.596Z,40.60
2022-12-13T17:32:46.054Z,28.93
2022-12-13T17:37:50.967Z,31.70
2022-12-13T17:42:58.425Z,30.00
2022-12-13T17:48:03.425Z,38.17
2022-12-13T17:53:08.702Z,49.67
2022-12-13T17:58:16.305Z,39.67
2022-12-13T18:03:21.275Z,31.77
2022-12-13T18:08:26.217Z,40.47
2022-12-13T18:13:34.035Z,66.23
2022-12-13T18:18:39.032Z,76.50
2022-12-13T18:23:44.750Z,60.80
2022-12-13T18:29:03.148Z,38.37
2022-12-13T18:34:08.489Z,32.97
2022-12-13T18:39:14.756Z,36.03
2022-12-13T18:44:22.852Z,38.63
2022-12-13T18:49:28.374Z,71.67
2022-12-13T18:54:36.772Z,39.13
2022-12-13T18:59:54.168Z,36.70
2022-12-13T19:05:00.851Z,30.40
2022-12-13T19:10:07.678Z,33.80
2022-12-13T19:15:19.079Z,35.67
2022-12-13T19:20:25.578Z,28.30
2022-12-13T19:25:33.218Z,28.13
2022-12-13T19:30:49.314Z,36.77
2022-12-13T19:35:55.078Z,32.77
2022-12-13T19:41:01.407Z,33.83
2022-12-13T19:46:15.270Z,35.90
2022-12-13T19:51:23.673Z,49.07
2022-12-13T19:56:30.070Z,41.20
2022-12-13T20:01:39.439Z,31.63
2022-12-13T20:06:51.202Z,30.03
2022-12-13T20:11:57.658Z,35.70
2022-12-13T20:17:07.259Z,29.43
2022-12-13T20:22:13.749Z,36.73
2022-12-13T20:27:22.342Z,37.27
2022-12-13T20:32:32.855Z,30.17
2022-12-13T20:37:38.508Z,31.77
2022-12-13T20:42:44.724Z,33.80
2022-12-13T20:47:55.978Z,36.70
2022-12-13T20:53:01.793Z,34.00
2022-12-13T20:58:07.723Z,35.70
2022-12-13T21:03:15.822Z,32.03
2022-12-13T21:08:34.253Z,40.07
2022-12-13T21:13:39.824Z,38.57
2022-12-13T21:18:51.395Z,37.43
2022-12-13T21:23:58.411Z,39.20
2022-12-13T21:29:05.296Z,37.97
2022-12-13T21:34:16.202Z,36.47
2022-12-13T21:39:24.307Z,41.77
2022-12-13T21:44:29.409Z,43.87
2022-12-13T21:49:36.962Z,39.97
2022-12-13T21:54:41.833Z,37.13
2022-12-13T21:59:46.839Z,37.57
2022-12-13T22:05:04.504Z,38.90
2022-12-13T22:10:11.003Z,41.20
2022-12-13T22:15:17.797Z,40.93
2022-12-13T22:20:25.381Z,36.53
2022-12-13T22:25:30.741Z,34.03
2022-12-13T22:30:36.747Z,35.80
2022-12-13T22:35:44.240Z,41.10
2022-12-13T22:40:54.285Z,43.17
2022-12-13T22:46:04.619Z,33.50
2022-12-13T22:51:15.463Z,29.93
2022-12-13T22:56:21.824Z,30.67
2022-12-13T23:01:30.468Z,34.77
2022-12-13T23:06:39.568Z,36.67
2022-12-13T23:11:57.671Z,40.63
2022-12-13T23:17:03.355Z,35.70
2022-12-13T23:22:11.262Z,30.23
2022-12-13T23:27:17.586Z,33.60
2022-12-13T23:32:22.643Z,33.07
2022-12-13T23:37:30.243Z,33.60
2022-12-13T23:42:35.145Z,29.40
2022-12-13T23:47:40.186Z,30.73
2022-12-13T23:52:51.081Z,34.50
2022-12-13T23:57:55.996Z,34.70
